sensor_id;sensor_type;location;lat;lon;timestamp;temperature;humidity
47618;DHT22;33336;36.728;-4.414;2023-11-22T00:01:19;17.80;82.90
47618;DHT22;33336;36.728;-4.414;2023-11-22T00:06:22;17.60;81.60
47618;DHT22;33336;36.728;-4.414;2023-11-22T00:11:27;17.50;84.10
47618;DHT22;33336;36.728;-4.414;2023-11-22T00:16:29;17.70;83.50
47618;DHT22;33336;36.728;-4.414;2023-11-22T00:21:33;17.80;83.30
47618;DHT22;33336;36.728;-4.414;2023-11-22T00:26:38;17.80;82.50
47618;DHT22;33336;36.728;-4.414;2023-11-22T00:31:41;17.70;81.00
47618;DHT22;33336;36.728;-4.414;2023-11-22T00:36:45;17.80;81.80
47618;DHT22;33336;36.728;-4.414;2023-11-22T00:41:52;17.80;80.80
47618;DHT22;33336;36.728;-4.414;2023-11-22T00:46:54;17.70;80.20
47618;DHT22;33336;36.728;-4.414;2023-11-22T00:51:59;17.80;79.80
47618;DHT22;33336;36.728;-4.414;2023-11-22T00:57:04;17.70;79.80
47618;DHT22;33336;36.728;-4.414;2023-11-22T01:02:08;17.10;81.10
47618;DHT22;33336;36.728;-4.414;2023-11-22T01:07:11;17.00;81.20
47618;DHT22;33336;36.728;-4.414;2023-11-22T01:12:16;16.70;81.60
47618;DHT22;33336;36.728;-4.414;2023-11-22T01:17:18;17.40;81.50
47618;DHT22;33336;36.728;-4.414;2023-11-22T01:22:22;17.30;81.60
47618;DHT22;33336;36.728;-4.414;2023-11-22T01:27:26;17.20;80.70
47618;DHT22;33336;36.728;-4.414;2023-11-22T01:32:30;17.30;81.00
47618;DHT22;33336;36.728;-4.414;2023-11-22T01:37:33;17.00;81.00
47618;DHT22;33336;36.728;-4.414;2023-11-22T01:42:38;17.50;80.50
47618;DHT22;33336;36.728;-4.414;2023-11-22T01:47:41;17.10;80.10
47618;DHT22;33336;36.728;-4.414;2023-11-22T01:52:46;17.40;79.90
47618;DHT22;33336;36.728;-4.414;2023-11-22T01:57:51;17.30;80.30
47618;DHT22;33336;36.728;-4.414;2023-11-22T02:02:54;17.30;80.00
47618;DHT22;33336;36.728;-4.414;2023-11-22T02:07:57;17.50;79.10
47618;DHT22;33336;36.728;-4.414;2023-11-22T02:13:03;17.00;79.20
47618;DHT22;33336;36.728;-4.414;2023-11-22T02:18:08;16.60;80.10
47618;DHT22;33336;36.728;-4.414;2023-11-22T02:23:13;16.80;81.00
47618;DHT22;33336;36.728;-4.414;2023-11-22T02:28:15;16.60;80.90
47618;DHT22;33336;36.728;-4.414;2023-11-22T02:33:19;16.50;80.90
47618;DHT22;33336;36.728;-4.414;2023-11-22T02:38:23;16.40;81.50
47618;DHT22;33336;36.728;-4.414;2023-11-22T02:43:29;16.00;82.50
47618;DHT22;33336;36.728;-4.414;2023-11-22T02:48:32;16.10;82.60
47618;DHT22;33336;36.728;-4.414;2023-11-22T02:53:36;16.60;82.20
47618;DHT22;33336;36.728;-4.414;2023-11-22T02:58:41;16.40;82.50
47618;DHT22;33336;36.728;-4.414;2023-11-22T03:03:44;15.70;83.90
47618;DHT22;33336;36.728;-4.414;2023-11-22T03:08:49;15.70;84.10
47618;DHT22;33336;36.728;-4.414;2023-11-22T03:13:52;15.80;84.20
47618;DHT22;33336;36.728;-4.414;2023-11-22T03:18:55;15.70;84.60
47618;DHT22;33336;36.728;-4.414;2023-11-22T03:24:02;16.30;83.90
47618;DHT22;33336;36.728;-4.414;2023-11-22T03:29:05;15.80;84.10
47618;DHT22;33336;36.728;-4.414;2023-11-22T03:34:08;15.50;84.20
47618;DHT22;33336;36.728;-4.414;2023-11-22T03:39:12;15.20;84.90
47618;DHT22;33336;36.728;-4.414;2023-11-22T03:44:16;14.90;85.40
47618;DHT22;33336;36.728;-4.414;2023-11-22T03:49:19;15.10;85.20
47618;DHT22;33336;36.728;-4.414;2023-11-22T03:54:23;15.10;84.90
47618;DHT22;33336;36.728;-4.414;2023-11-22T03:59:26;15.10;85.40
47618;DHT22;33336;36.728;-4.414;2023-11-22T04:04:30;15.00;85.80
47618;DHT22;33336;36.728;-4.414;2023-11-22T04:09:34;15.30;85.90
47618;DHT22;33336;36.728;-4.414;2023-11-22T04:14:38;14.90;86.60
47618;DHT22;33336;36.728;-4.414;2023-11-22T04:19:41;15.20;86.10
47618;DHT22;33336;36.728;-4.414;2023-11-22T04:24:45;14.90;86.70
47618;DHT22;33336;36.728;-4.414;2023-11-22T04:29:48;14.60;87.30
47618;DHT22;33336;36.728;-4.414;2023-11-22T04:34:52;15.00;87.00
47618;DHT22;33336;36.728;-4.414;2023-11-22T04:39:56;15.00;87.00
47618;DHT22;33336;36.728;-4.414;2023-11-22T04:45:00;15.00;86.70
47618;DHT22;33336;36.728;-4.414;2023-11-22T04:50:03;15.00;86.40
47618;DHT22;33336;36.728;-4.414;2023-11-22T04:55:09;15.20;86.80
47618;DHT22;33336;36.728;-4.414;2023-11-22T05:00:13;15.00;86.60
47618;DHT22;33336;36.728;-4.414;2023-11-22T05:05:16;14.90;87.00
47618;DHT22;33336;36.728;-4.414;2023-11-22T05:10:20;14.90;86.30
47618;DHT22;33336;36.728;-4.414;2023-11-22T05:15:24;14.60;87.20
47618;DHT22;33336;36.728;-4.414;2023-11-22T05:20:27;14.90;87.00
47618;DHT22;33336;36.728;-4.414;2023-11-22T05:25:31;14.60;87.10
47618;DHT22;33336;36.728;-4.414;2023-11-22T05:30:34;14.50;87.40
47618;DHT22;33336;36.728;-4.414;2023-11-22T05:35:38;14.60;87.30
47618;DHT22;33336;36.728;-4.414;2023-11-22T05:40:43;14.40;87.80
47618;DHT22;33336;36.728;-4.414;2023-11-22T05:45:47;14.20;88.10
47618;DHT22;33336;36.728;-4.414;2023-11-22T05:50:51;14.10;88.90
47618;DHT22;33336;36.728;-4.414;2023-11-22T05:55:55;14.40;87.80
47618;DHT22;33336;36.728;-4.414;2023-11-22T06:00:58;14.20;88.00
47618;DHT22;33336;36.728;-4.414;2023-11-22T06:06:02;14.60;87.40
47618;DHT22;33336;36.728;-4.414;2023-11-22T06:11:06;14.60;87.40
47618;DHT22;33336;36.728;-4.414;2023-11-22T06:16:10;14.50;87.20
47618;DHT22;33336;36.728;-4.414;2023-11-22T06:21:13;14.30;87.40
47618;DHT22;33336;36.728;-4.414;2023-11-22T06:26:17;14.00;87.70
47618;DHT22;33336;36.728;-4.414;2023-11-22T06:31:20;14.40;87.10
47618;DHT22;33336;36.728;-4.414;2023-11-22T06:36:24;14.00;87.40
47618;DHT22;33336;36.728;-4.414;2023-11-22T06:41:28;14.20;87.40
47618;DHT22;33336;36.728;-4.414;2023-11-22T06:46:32;14.50;86.70
47618;DHT22;33336;36.728;-4.414;2023-11-22T06:51:35;14.30;87.10
47618;DHT22;33336;36.728;-4.414;2023-11-22T06:56:39;14.30;87.40
47618;DHT22;33336;36.728;-4.414;2023-11-22T07:01:42;14.20;87.40
47618;DHT22;33336;36.728;-4.414;2023-11-22T07:06:47;14.40;87.30
47618;DHT22;33336;36.728;-4.414;2023-11-22T07:11:51;14.20;87.60
47618;DHT22;33336;36.728;-4.414;2023-11-22T07:16:55;14.30;88.10
47618;DHT22;33336;36.728;-4.414;2023-11-22T07:21:58;14.40;87.20
47618;DHT22;33336;36.728;-4.414;2023-11-22T07:27:03;14.20;87.80
47618;DHT22;33336;36.728;-4.414;2023-11-22T07:32:06;14.30;87.60
47618;DHT22;33336;36.728;-4.414;2023-11-22T07:37:09;14.50;87.20
47618;DHT22;33336;36.728;-4.414;2023-11-22T07:42:15;14.20;87.10
47618;DHT22;33336;36.728;-4.414;2023-11-22T07:47:19;14.00;87.70
47618;DHT22;33336;36.728;-4.414;2023-11-22T07:52:23;14.20;87.60
47618;DHT22;33336;36.728;-4.414;2023-11-22T07:57:32;14.20;87.20
47618;DHT22;33336;36.728;-4.414;2023-11-22T08:02:36;14.60;87.20
47618;DHT22;33336;36.728;-4.414;2023-11-22T08:07:40;14.50;86.60
47618;DHT22;33336;36.728;-4.414;2023-11-22T08:12:45;14.30;87.30
47618;DHT22;33336;36.728;-4.414;2023-11-22T08:17:48;14.30;86.80
47618;DHT22;33336;36.728;-4.414;2023-11-22T08:22:51;14.80;86.70
47618;DHT22;33336;36.728;-4.414;2023-11-22T08:27:56;14.60;86.50
47618;DHT22;33336;36.728;-4.414;2023-11-22T08:33:00;14.50;86.40
47618;DHT22;33336;36.728;-4.414;2023-11-22T08:38:03;14.50;86.50
47618;DHT22;33336;36.728;-4.414;2023-11-22T08:43:11;14.80;86.00
47618;DHT22;33336;36.728;-4.414;2023-11-22T08:48:15;15.00;85.80
47618;DHT22;33336;36.728;-4.414;2023-11-22T08:53:18;15.00;85.20
47618;DHT22;33336;36.728;-4.414;2023-11-22T08:58:23;15.40;85.30
47618;DHT22;33336;36.728;-4.414;2023-11-22T09:03:26;15.50;85.10
47618;DHT22;33336;36.728;-4.414;2023-11-22T09:08:30;15.60;84.20
47618;DHT22;33336;36.728;-4.414;2023-11-22T09:13:34;15.50;84.60
47618;DHT22;33336;36.728;-4.414;2023-11-22T09:18:41;16.10;84.10
47618;DHT22;33336;36.728;-4.414;2023-11-22T09:23:44;15.90;84.00
47618;DHT22;33336;36.728;-4.414;2023-11-22T09:28:50;16.00;84.00
47618;DHT22;33336;36.728;-4.414;2023-11-22T09:33:55;16.00;83.20
47618;DHT22;33336;36.728;-4.414;2023-11-22T09:38:58;16.30;82.80
47618;DHT22;33336;36.728;-4.414;2023-11-22T09:44:02;16.40;82.10
47618;DHT22;33336;36.728;-4.414;2023-11-22T09:49:09;16.60;82.00
47618;DHT22;33336;36.728;-4.414;2023-11-22T09:54:14;16.70;82.60
47618;DHT22;33336;36.728;-4.414;2023-11-22T09:59:19;16.80;81.50
47618;DHT22;33336;36.728;-4.414;2023-11-22T10:04:25;17.10;80.80
47618;DHT22;33336;36.728;-4.414;2023-11-22T10:09:30;17.20;80.20
47618;DHT22;33336;36.728;-4.414;2023-11-22T10:14:34;17.50;79.80
47618;DHT22;33336;36.728;-4.414;2023-11-22T10:19:38;17.60;80.00
47618;DHT22;33336;36.728;-4.414;2023-11-22T10:24:43;17.90;78.60
47618;DHT22;33336;36.728;-4.414;2023-11-22T10:29:50;18.30;76.70
47618;DHT22;33336;36.728;-4.414;2023-11-22T10:34:53;18.50;75.90
47618;DHT22;33336;36.728;-4.414;2023-11-22T10:39:56;18.80;74.50
47618;DHT22;33336;36.728;-4.414;2023-11-22T10:45:00;19.00;74.70
47618;DHT22;33336;36.728;-4.414;2023-11-22T10:50:06;18.90;74.00
47618;DHT22;33336;36.728;-4.414;2023-11-22T10:55:11;19.40;73.80
47618;DHT22;33336;36.728;-4.414;2023-11-22T11:00:19;19.80;72.90
47618;DHT22;33336;36.728;-4.414;2023-11-22T11:05:28;19.90;72.30
47618;DHT22;33336;36.728;-4.414;2023-11-22T11:10:32;20.50;72.90
47618;DHT22;33336;36.728;-4.414;2023-11-22T11:15:37;20.80;71.40
47618;DHT22;33336;36.728;-4.414;2023-11-22T11:20:49;20.90;71.50
47618;DHT22;33336;36.728;-4.414;2023-11-22T11:25:54;20.70;72.10
47618;DHT22;33336;36.728;-4.414;2023-11-22T11:30:58;20.80;72.90
47618;DHT22;33336;36.728;-4.414;2023-11-22T11:36:03;21.00;73.00
47618;DHT22;33336;36.728;-4.414;2023-11-22T11:41:09;20.80;73.20
47618;DHT22;33336;36.728;-4.414;2023-11-22T11:46:14;20.60;72.30
47618;DHT22;33336;36.728;-4.414;2023-11-22T11:51:20;20.30;73.20
47618;DHT22;33336;36.728;-4.414;2023-11-22T11:56:23;20.10;72.40
47618;DHT22;33336;36.728;-4.414;2023-11-22T12:01:30;20.00;72.90
47618;DHT22;33336;36.728;-4.414;2023-11-22T12:06:33;20.20;74.10
47618;DHT22;33336;36.728;-4.414;2023-11-22T12:11:41;20.40;73.70
47618;DHT22;33336;36.728;-4.414;2023-11-22T12:16:46;20.50;74.30
47618;DHT22;33336;36.728;-4.414;2023-11-22T12:21:51;20.60;74.10
47618;DHT22;33336;36.728;-4.414;2023-11-22T12:26:56;20.40;74.30
47618;DHT22;33336;36.728;-4.414;2023-11-22T12:32:00;21.00;75.00
47618;DHT22;33336;36.728;-4.414;2023-11-22T12:37:03;20.90;74.60
47618;DHT22;33336;36.728;-4.414;2023-11-22T12:42:07;20.90;74.50
47618;DHT22;33336;36.728;-4.414;2023-11-22T12:47:11;20.80;73.40
47618;DHT22;33336;36.728;-4.414;2023-11-22T12:52:15;21.60;73.80
47618;DHT22;33336;36.728;-4.414;2023-11-22T12:57:18;21.40;72.40
47618;DHT22;33336;36.728;-4.414;2023-11-22T13:02:22;21.50;72.40
47618;DHT22;33336;36.728;-4.414;2023-11-22T13:07:25;22.20;72.70
47618;DHT22;33336;36.728;-4.414;2023-11-22T13:12:29;21.80;72.30
47618;DHT22;33336;36.728;-4.414;2023-11-22T13:17:33;22.40;72.10
47618;DHT22;33336;36.728;-4.414;2023-11-22T13:22:37;22.30;71.20
47618;DHT22;33336;36.728;-4.414;2023-11-22T13:27:40;22.10;72.00
47618;DHT22;33336;36.728;-4.414;2023-11-22T13:32:45;22.00;71.10
47618;DHT22;33336;36.728;-4.414;2023-11-22T13:37:49;22.50;71.20
47618;DHT22;33336;36.728;-4.414;2023-11-22T13:42:52;23.00;70.90
47618;DHT22;33336;36.728;-4.414;2023-11-22T13:47:56;23.00;70.70
47618;DHT22;33336;36.728;-4.414;2023-11-22T13:53:05;23.70;71.90
47618;DHT22;33336;36.728;-4.414;2023-11-22T13:58:11;24.70;69.30
47618;DHT22;33336;36.728;-4.414;2023-11-22T14:03:16;24.50;68.10
47618;DHT22;33336;36.728;-4.414;2023-11-22T14:08:19;24.20;67.60
47618;DHT22;33336;36.728;-4.414;2023-11-22T14:13:23;26.10;67.40
47618;DHT22;33336;36.728;-4.414;2023-11-22T14:18:27;27.40;67.40
47618;DHT22;33336;36.728;-4.414;2023-11-22T14:23:31;27.60;66.70
47618;DHT22;33336;36.728;-4.414;2023-11-22T14:28:34;27.00;65.60
47618;DHT22;33336;36.728;-4.414;2023-11-22T14:33:39;29.20;65.00
47618;DHT22;33336;36.728;-4.414;2023-11-22T14:38:42;29.10;65.60
47618;DHT22;33336;36.728;-4.414;2023-11-22T14:43:45;30.40;62.90
47618;DHT22;33336;36.728;-4.414;2023-11-22T14:48:49;30.80;64.10
47618;DHT22;33336;36.728;-4.414;2023-11-22T14:53:53;30.10;61.80
47618;DHT22;33336;36.728;-4.414;2023-11-22T14:58:55;30.70;63.70
47618;DHT22;33336;36.728;-4.414;2023-11-22T15:04:00;31.00;63.60
47618;DHT22;33336;36.728;-4.414;2023-11-22T15:09:06;31.10;63.60
47618;DHT22;33336;36.728;-4.414;2023-11-22T15:14:11;30.40;60.90
47618;DHT22;33336;36.728;-4.414;2023-11-22T15:19:15;30.40;62.50
47618;DHT22;33336;36.728;-4.414;2023-11-22T15:24:19;30.60;62.50
47618;DHT22;33336;36.728;-4.414;2023-11-22T15:29:21;30.20;62.90
47618;DHT22;33336;36.728;-4.414;2023-11-22T15:34:26;31.90;61.70
47618;DHT22;33336;36.728;-4.414;2023-11-22T15:39:29;30.70;62.30
47618;DHT22;33336;36.728;-4.414;2023-11-22T15:44:33;31.80;62.00
47618;DHT22;33336;36.728;-4.414;2023-11-22T15:49:37;31.40;60.80
47618;DHT22;33336;36.728;-4.414;2023-11-22T15:54:41;30.90;60.80
47618;DHT22;33336;36.728;-4.414;2023-11-22T15:59:44;30.90;60.10
47618;DHT22;33336;36.728;-4.414;2023-11-22T16:04:48;30.70;61.30
47618;DHT22;33336;36.728;-4.414;2023-11-22T16:09:52;30.30;61.00
47618;DHT22;33336;36.728;-4.414;2023-11-22T16:14:59;30.50;61.30
47618;DHT22;33336;36.728;-4.414;2023-11-22T16:20:04;30.90;61.50
47618;DHT22;33336;36.728;-4.414;2023-11-22T16:25:13;30.30;61.50
47618;DHT22;33336;36.728;-4.414;2023-11-22T16:30:19;29.90;61.40
47618;DHT22;33336;36.728;-4.414;2023-11-22T16:35:28;28.60;61.40
47618;DHT22;33336;36.728;-4.414;2023-11-22T16:40:47;27.80;62.20
47618;DHT22;33336;36.728;-4.414;2023-11-22T16:45:54;26.40;63.00
47618;DHT22;33336;36.728;-4.414;2023-11-22T16:50:59;25.50;64.30
47618;DHT22;33336;36.728;-4.414;2023-11-22T16:56:03;24.50;65.00
47618;DHT22;33336;36.728;-4.414;2023-11-22T17:01:06;24.00;65.70
47618;DHT22;33336;36.728;-4.414;2023-11-22T17:06:11;24.00;65.90
47618;DHT22;33336;36.728;-4.414;2023-11-22T17:11:14;23.60;65.90
47618;DHT22;33336;36.728;-4.414;2023-11-22T17:16:18;23.20;66.10
47618;DHT22;33336;36.728;-4.414;2023-11-22T17:21:22;22.80;66.50
47618;DHT22;33336;36.728;-4.414;2023-11-22T17:26:27;22.70;66.60
47618;DHT22;33336;36.728;-4.414;2023-11-22T17:31:30;22.40;66.80
47618;DHT22;33336;36.728;-4.414;2023-11-22T17:36:36;21.90;68.00
47618;DHT22;33336;36.728;-4.414;2023-11-22T17:41:39;21.80;67.80
47618;DHT22;33336;36.728;-4.414;2023-11-22T17:46:42;21.20;68.70
47618;DHT22;33336;36.728;-4.414;2023-11-22T17:51:46;21.30;68.70
47618;DHT22;33336;36.728;-4.414;2023-11-22T17:56:55;21.40;68.00
47618;DHT22;33336;36.728;-4.414;2023-11-22T18:01:58;21.60;68.00
47618;DHT22;33336;36.728;-4.414;2023-11-22T18:07:02;21.50;67.90
47618;DHT22;33336;36.728;-4.414;2023-11-22T18:12:06;21.40;68.00
47618;DHT22;33336;36.728;-4.414;2023-11-22T18:17:09;21.20;68.30
47618;DHT22;33336;36.728;-4.414;2023-11-22T18:22:13;21.10;68.70
47618;DHT22;33336;36.728;-4.414;2023-11-22T18:27:17;21.00;68.80
47618;DHT22;33336;36.728;-4.414;2023-11-22T18:32:19;20.80;69.40
47618;DHT22;33336;36.728;-4.414;2023-11-22T18:37:28;20.60;69.80
47618;DHT22;33336;36.728;-4.414;2023-11-22T18:42:31;20.60;69.60
47618;DHT22;33336;36.728;-4.414;2023-11-22T18:47:34;20.40;69.70
47618;DHT22;33336;36.728;-4.414;2023-11-22T18:52:44;20.50;69.80
47618;DHT22;33336;36.728;-4.414;2023-11-22T18:57:48;20.60;69.70
47618;DHT22;33336;36.728;-4.414;2023-11-22T19:02:50;20.60;69.50
47618;DHT22;33336;36.728;-4.414;2023-11-22T19:07:55;20.60;69.90
47618;DHT22;33336;36.728;-4.414;2023-11-22T19:12:59;20.30;70.30
47618;DHT22;33336;36.728;-4.414;2023-11-22T19:18:02;20.20;70.40
47618;DHT22;33336;36.728;-4.414;2023-11-22T19:23:06;20.20;70.20
47618;DHT22;33336;36.728;-4.414;2023-11-22T19:28:10;19.50;70.90
47618;DHT22;33336;36.728;-4.414;2023-11-22T19:33:13;19.50;71.50
47618;DHT22;33336;36.728;-4.414;2023-11-22T19:38:18;19.40;71.90
47618;DHT22;33336;36.728;-4.414;2023-11-22T19:43:22;19.10;75.30
47618;DHT22;33336;36.728;-4.414;2023-11-22T19:48:25;18.80;76.30
47618;DHT22;33336;36.728;-4.414;2023-11-22T19:53:29;19.20;76.50
47618;DHT22;33336;36.728;-4.414;2023-11-22T19:58:32;19.30;73.80
47618;DHT22;33336;36.728;-4.414;2023-11-22T20:03:35;19.30;73.20
47618;DHT22;33336;36.728;-4.414;2023-11-22T20:08:41;19.30;72.20
47618;DHT22;33336;36.728;-4.414;2023-11-22T20:13:44;19.30;72.00
47618;DHT22;33336;36.728;-4.414;2023-11-22T20:18:48;19.40;72.10
47618;DHT22;33336;36.728;-4.414;2023-11-22T20:24:10;19.10;82.50
47618;DHT22;33336;36.728;-4.414;2023-11-22T20:29:14;18.10;91.90
47618;DHT22;33336;36.728;-4.414;2023-11-22T20:34:17;17.60;93.70
47618;DHT22;33336;36.728;-4.414;2023-11-22T20:39:21;17.50;93.40
47618;DHT22;33336;36.728;-4.414;2023-11-22T20:44:25;17.40;94.00
47618;DHT22;33336;36.728;-4.414;2023-11-22T20:49:28;17.10;94.20
47618;DHT22;33336;36.728;-4.414;2023-11-22T20:54:34;17.60;92.60
47618;DHT22;33336;36.728;-4.414;2023-11-22T20:59:38;17.60;92.70
47618;DHT22;33336;36.728;-4.414;2023-11-22T21:04:43;18.00;92.00
47618;DHT22;33336;36.728;-4.414;2023-11-22T21:09:48;17.80;92.50
47618;DHT22;33336;36.728;-4.414;2023-11-22T21:14:55;18.10;91.90
47618;DHT22;33336;36.728;-4.414;2023-11-22T21:19:58;18.30;92.00
47618;DHT22;33336;36.728;-4.414;2023-11-22T21:25:04;18.30;92.30
47618;DHT22;33336;36.728;-4.414;2023-11-22T21:30:08;18.20;93.00
47618;DHT22;33336;36.728;-4.414;2023-11-22T21:35:13;18.30;92.90
47618;DHT22;33336;36.728;-4.414;2023-11-22T21:40:17;18.50;93.10
47618;DHT22;33336;36.728;-4.414;2023-11-22T21:45:24;18.70;93.00
47618;DHT22;33336;36.728;-4.414;2023-11-22T21:50:30;18.60;92.70
47618;DHT22;33336;36.728;-4.414;2023-11-22T21:55:35;18.60;92.40
47618;DHT22;33336;36.728;-4.414;2023-11-22T22:00:38;18.50;92.50
47618;DHT22;33336;36.728;-4.414;2023-11-22T22:05:43;18.20;92.80
47618;DHT22;33336;36.728;-4.414;2023-11-22T22:10:48;18.30;92.70
47618;DHT22;33336;36.728;-4.414;2023-11-22T22:15:52;18.30;92.60
47618;DHT22;33336;36.728;-4.414;2023-11-22T22:20:54;18.30;92.80
47618;DHT22;33336;36.728;-4.414;2023-11-22T22:25:59;18.30;92.30
47618;DHT22;33336;36.728;-4.414;2023-11-22T22:31:02;18.20;92.30
47618;DHT22;33336;36.728;-4.414;2023-11-22T22:36:06;18.10;92.50
47618;DHT22;33336;36.728;-4.414;2023-11-22T22:41:15;18.10;92.30
47618;DHT22;33336;36.728;-4.414;2023-11-22T22:46:19;18.00;92.20
47618;DHT22;33336;36.728;-4.414;2023-11-22T22:51:21;17.90;92.20
47618;DHT22;33336;36.728;-4.414;2023-11-22T22:56:26;17.90;91.80
47618;DHT22;33336;36.728;-4.414;2023-11-22T23:01:29;17.90;91.30
47618;DHT22;33336;36.728;-4.414;2023-11-22T23:06:41;17.90;91.20
47618;DHT22;33336;36.728;-4.414;2023-11-22T23:11:46;17.80;91.20
47618;DHT22;33336;36.728;-4.414;2023-11-22T23:16:52;17.80;91.20
47618;DHT22;33336;36.728;-4.414;2023-11-22T23:21:58;17.70;91.10
47618;DHT22;33336;36.728;-4.414;2023-11-22T23:27:07;17.60;91.40
47618;DHT22;33336;36.728;-4.414;2023-11-22T23:32:10;17.60;91.40
47618;DHT22;33336;36.728;-4.414;2023-11-22T23:37:15;17.50;91.40
47618;DHT22;33336;36.728;-4.414;2023-11-22T23:42:19;17.40;91.70
47618;DHT22;33336;36.728;-4.414;2023-11-22T23:47:22;17.30;91.90
47618;DHT22;33336;36.728;-4.414;2023-11-22T23:52:25;17.30;91.80
47618;DHT22;33336;36.728;-4.414;2023-11-22T23:57:30;17.30;91.70
